sensor_id;sensor_type;location;lat;lon;timestamp;pressure;altitude;pressure_sealevel;temperature;humidity
11343;BME280;5726;42.160;24.746;2023-02-13T00:02:24;101477.03;;;7.38;56.76
11343;BME280;5726;42.160;24.746;2023-02-13T00:04:50;101470.22;;;7.24;57.15
11343;BME280;5726;42.160;24.746;2023-02-13T00:07:15;101475.53;;;7.24;57.20
11343;BME280;5726;42.160;24.746;2023-02-13T00:09:40;101481.44;;;6.84;58.78
11343;BME280;5726;42.160;24.746;2023-02-13T00:12:07;101473.38;;;6.91;59.01
11343;BME280;5726;42.160;24.746;2023-02-13T00:14:37;101485.00;;;7.20;57.48
11343;BME280;5726;42.160;24.746;2023-02-13T00:17:03;101481.28;;;7.04;58.00
11343;BME280;5726;42.160;24.746;2023-02-13T00:19:28;101481.28;;;7.04;58.04
11343;BME280;5726;42.160;24.746;2023-02-13T00:21:54;101481.13;;;6.99;58.71
11343;BME280;5726;42.160;24.746;2023-02-13T00:24:19;101492.53;;;7.06;58.30
11343;BME280;5726;42.160;24.746;2023-02-13T00:26:44;101494.81;;;7.02;58.50
11343;BME280;5726;42.160;24.746;2023-02-13T00:29:10;101491.81;;;6.92;58.47
11343;BME280;5726;42.160;24.746;2023-02-13T00:31:35;101496.25;;;7.05;58.19
11343;BME280;5726;42.160;24.746;2023-02-13T00:34:01;101491.94;;;7.04;58.37
11343;BME280;5726;42.160;24.746;2023-02-13T00:36:26;101491.13;;;7.03;58.10
11343;BME280;5726;42.160;24.746;2023-02-13T00:38:53;101495.38;;;7.11;57.81
11343;BME280;5726;42.160;24.746;2023-02-13T00:41:18;101489.63;;;7.13;57.66
11343;BME280;5726;42.160;24.746;2023-02-13T00:43:45;101485.31;;;7.13;57.92
11343;BME280;5726;42.160;24.746;2023-02-13T00:46:11;101489.53;;;7.20;57.21
11343;BME280;5726;42.160;24.746;2023-02-13T00:48:37;101480.50;;;7.21;57.08
11343;BME280;5726;42.160;24.746;2023-02-13T00:51:03;101488.84;;;7.07;58.09
11343;BME280;5726;42.160;24.746;2023-02-13T00:53:29;101487.25;;;6.99;58.05
11343;BME280;5726;42.160;24.746;2023-02-13T00:55:55;101494.16;;;7.07;57.88
11343;BME280;5726;42.160;24.746;2023-02-13T00:58:20;101493.75;;;7.10;57.80
11343;BME280;5726;42.160;24.746;2023-02-13T01:00:46;101489.09;;;7.23;57.32
11343;BME280;5726;42.160;24.746;2023-02-13T01:03:13;101495.31;;;7.17;57.30
11343;BME280;5726;42.160;24.746;2023-02-13T01:05:38;101488.63;;;7.50;56.19
11343;BME280;5726;42.160;24.746;2023-02-13T01:08:04;101495.13;;;7.36;56.36
11343;BME280;5726;42.160;24.746;2023-02-13T01:10:30;101502.13;;;7.37;56.06
11343;BME280;5726;42.160;24.746;2023-02-13T01:12:55;101498.03;;;7.35;56.33
11343;BME280;5726;42.160;24.746;2023-02-13T01:15:21;101491.75;;;7.47;55.79
11343;BME280;5726;42.160;24.746;2023-02-13T01:17:46;101493.75;;;7.52;55.80
11343;BME280;5726;42.160;24.746;2023-02-13T01:20:12;101489.97;;;7.59;55.17
11343;BME280;5726;42.160;24.746;2023-02-13T01:22:38;101494.03;;;7.44;56.12
11343;BME280;5726;42.160;24.746;2023-02-13T01:25:04;101490.34;;;7.45;56.09
11343;BME280;5726;42.160;24.746;2023-02-13T01:27:30;101498.97;;;7.64;55.36
11343;BME280;5726;42.160;24.746;2023-02-13T01:29:56;101500.97;;;7.69;55.31
11343;BME280;5726;42.160;24.746;2023-02-13T01:32:22;101503.19;;;7.90;54.36
11343;BME280;5726;42.160;24.746;2023-02-13T01:34:47;101495.53;;;7.93;54.34
11343;BME280;5726;42.160;24.746;2023-02-13T01:37:13;101496.44;;;8.05;53.76
11343;BME280;5726;42.160;24.746;2023-02-13T01:39:38;101496.53;;;8.16;53.48
11343;BME280;5726;42.160;24.746;2023-02-13T01:42:09;101504.97;;;7.96;54.65
11343;BME280;5726;42.160;24.746;2023-02-13T01:44:52;101508.81;;;7.46;56.71
11343;BME280;5726;42.160;24.746;2023-02-13T01:47:30;101513.66;;;7.31;57.98
11343;BME280;5726;42.160;24.746;2023-02-13T01:50:11;101517.91;;;7.14;59.27
11343;BME280;5726;42.160;24.746;2023-02-13T01:52:41;101508.47;;;6.88;61.05
11343;BME280;5726;42.160;24.746;2023-02-13T01:55:08;101515.66;;;6.87;61.17
11343;BME280;5726;42.160;24.746;2023-02-13T01:57:36;101517.50;;;6.56;62.88
11343;BME280;5726;42.160;24.746;2023-02-13T02:00:09;101512.06;;;6.38;64.65
11343;BME280;5726;42.160;24.746;2023-02-13T02:02:37;101510.84;;;6.34;64.97
11343;BME280;5726;42.160;24.746;2023-02-13T02:05:05;101520.13;;;6.25;65.69
11343;BME280;5726;42.160;24.746;2023-02-13T02:07:31;101514.47;;;6.03;67.53
11343;BME280;5726;42.160;24.746;2023-02-13T02:10:00;101525.16;;;5.90;68.73
11343;BME280;5726;42.160;24.746;2023-02-13T02:12:36;101522.53;;;5.70;70.36
11343;BME280;5726;42.160;24.746;2023-02-13T02:15:05;101526.22;;;5.63;71.44
11343;BME280;5726;42.160;24.746;2023-02-13T02:17:31;101528.50;;;5.53;72.37
11343;BME280;5726;42.160;24.746;2023-02-13T02:25:44;101536.94;;;6.19;69.51
11343;BME280;5726;42.160;24.746;2023-02-13T02:28:33;101541.88;;;6.16;70.44
11343;BME280;5726;42.160;24.746;2023-02-13T02:31:53;101553.47;;;5.84;69.67
11343;BME280;5726;42.160;24.746;2023-02-13T02:42:28;101544.84;;;5.63;70.95
11343;BME280;5726;42.160;24.746;2023-02-13T02:45:11;101560.84;;;5.50;72.20
11343;BME280;5726;42.160;24.746;2023-02-13T02:51:18;101562.50;;;5.38;72.76
11343;BME280;5726;42.160;24.746;2023-02-13T02:53:50;101568.00;;;5.50;72.26
11343;BME280;5726;42.160;24.746;2023-02-13T02:56:23;101563.69;;;5.81;73.38
11343;BME280;5726;42.160;24.746;2023-02-13T02:58:54;101563.25;;;5.97;70.61
11343;BME280;5726;42.160;24.746;2023-02-13T03:01:40;101572.03;;;6.04;70.03
11343;BME280;5726;42.160;24.746;2023-02-13T03:04:32;101568.34;;;6.11;68.12
11343;BME280;5726;42.160;24.746;2023-02-13T03:07:18;101570.25;;;5.85;68.29
11343;BME280;5726;42.160;24.746;2023-02-13T03:09:50;101571.03;;;5.98;67.49
11343;BME280;5726;42.160;24.746;2023-02-13T03:12:38;101570.16;;;6.17;66.97
11343;BME280;5726;42.160;24.746;2023-02-13T03:15:25;101569.69;;;6.26;65.12
11343;BME280;5726;42.160;24.746;2023-02-13T03:17:52;101566.56;;;5.86;66.58
11343;BME280;5726;42.160;24.746;2023-02-13T03:20:48;101570.41;;;5.90;67.17
11343;BME280;5726;42.160;24.746;2023-02-13T03:32:39;101571.66;;;5.81;67.54
11343;BME280;5726;42.160;24.746;2023-02-13T03:35:49;101587.84;;;5.60;69.52
11343;BME280;5726;42.160;24.746;2023-02-13T03:38:57;101587.03;;;5.47;71.09
11343;BME280;5726;42.160;24.746;2023-02-13T03:41:43;101581.09;;;5.25;72.63
11343;BME280;5726;42.160;24.746;2023-02-13T03:44:15;101580.91;;;5.59;70.20
11343;BME280;5726;42.160;24.746;2023-02-13T03:46:47;101583.97;;;5.75;69.58
11343;BME280;5726;42.160;24.746;2023-02-13T03:49:21;101582.50;;;5.60;69.54
11343;BME280;5726;42.160;24.746;2023-02-13T03:54:44;101580.88;;;5.72;69.33
11343;BME280;5726;42.160;24.746;2023-02-13T03:57:32;101582.09;;;5.82;68.51
11343;BME280;5726;42.160;24.746;2023-02-13T04:00:18;101582.09;;;5.82;68.47
11343;BME280;5726;42.160;24.746;2023-02-13T04:02:56;101578.19;;;6.04;67.09
11343;BME280;5726;42.160;24.746;2023-02-13T04:05:26;101573.66;;;6.11;65.94
11343;BME280;5726;42.160;24.746;2023-02-13T04:07:54;101582.09;;;5.95;67.00
11343;BME280;5726;42.160;24.746;2023-02-13T04:10:21;101584.59;;;5.77;68.20
11343;BME280;5726;42.160;24.746;2023-02-13T04:15:55;101589.50;;;5.80;68.35
11343;BME280;5726;42.160;24.746;2023-02-13T04:18:24;101595.19;;;5.97;67.05
11343;BME280;5726;42.160;24.746;2023-02-13T04:20:51;101594.00;;;5.80;67.20
11343;BME280;5726;42.160;24.746;2023-02-13T04:23:17;101585.38;;;5.78;67.62
11343;BME280;5726;42.160;24.746;2023-02-13T04:25:46;101585.63;;;5.44;69.23
11343;BME280;5726;42.160;24.746;2023-02-13T04:28:13;101583.75;;;5.45;69.52
11343;BME280;5726;42.160;24.746;2023-02-13T04:30:38;101587.84;;;5.60;68.54
11343;BME280;5726;42.160;24.746;2023-02-13T04:33:03;101585.38;;;5.78;68.02
11343;BME280;5726;42.160;24.746;2023-02-13T04:35:29;101582.53;;;5.86;66.82
11343;BME280;5726;42.160;24.746;2023-02-13T04:37:55;101597.28;;;5.82;66.85
11343;BME280;5726;42.160;24.746;2023-02-13T04:40:20;101584.97;;;5.81;66.80
11343;BME280;5726;42.160;24.746;2023-02-13T04:42:47;101583.72;;;5.90;65.15
11343;BME280;5726;42.160;24.746;2023-02-13T04:45:13;101589.06;;;5.70;66.01
11343;BME280;5726;42.160;24.746;2023-02-13T04:47:39;101596.03;;;5.65;66.59
11343;BME280;5726;42.160;24.746;2023-02-13T04:50:05;101597.25;;;5.63;66.64
11343;BME280;5726;42.160;24.746;2023-02-13T04:52:30;101599.31;;;5.67;66.21
11343;BME280;5726;42.160;24.746;2023-02-13T04:54:56;101602.00;;;5.80;64.43
11343;BME280;5726;42.160;24.746;2023-02-13T04:57:21;101596.88;;;5.59;64.23
11343;BME280;5726;42.160;24.746;2023-02-13T04:59:47;101598.06;;;5.44;64.87
11343;BME280;5726;42.160;24.746;2023-02-13T05:02:12;101593.59;;;5.44;65.16
11343;BME280;5726;42.160;24.746;2023-02-13T05:04:37;101588.28;;;5.44;65.13
11343;BME280;5726;42.160;24.746;2023-02-13T05:07:03;101593.97;;;5.16;66.40
11343;BME280;5726;42.160;24.746;2023-02-13T05:09:28;101600.13;;;5.29;66.60
11343;BME280;5726;42.160;24.746;2023-02-13T05:11:54;101594.81;;;5.16;67.10
11343;BME280;5726;42.160;24.746;2023-02-13T05:14:19;101598.06;;;5.18;66.17
11343;BME280;5726;42.160;24.746;2023-02-13T05:16:46;101608.28;;;5.08;66.60
11343;BME280;5726;42.160;24.746;2023-02-13T05:19:11;101605.00;;;5.06;66.58
11343;BME280;5726;42.160;24.746;2023-02-13T05:21:37;101605.66;;;5.15;65.60
11343;BME280;5726;42.160;24.746;2023-02-13T05:24:21;101611.78;;;5.15;65.35
11343;BME280;5726;42.160;24.746;2023-02-13T05:26:46;101615.25;;;5.09;65.62
11343;BME280;5726;42.160;24.746;2023-02-13T05:29:12;101616.06;;;5.10;65.95
11343;BME280;5726;42.160;24.746;2023-02-13T05:31:54;101624.69;;;5.37;65.21
11343;BME280;5726;42.160;24.746;2023-02-13T05:34:22;101624.28;;;5.53;62.74
11343;BME280;5726;42.160;24.746;2023-02-13T05:36:48;101626.31;;;5.25;64.81
11343;BME280;5726;42.160;24.746;2023-02-13T05:39:14;101636.94;;;5.25;63.71
11343;BME280;5726;42.160;24.746;2023-02-13T05:41:41;101642.69;;;5.35;63.13
11343;BME280;5726;42.160;24.746;2023-02-13T05:44:07;101650.41;;;5.05;64.13
11343;BME280;5726;42.160;24.746;2023-02-13T05:46:32;101653.72;;;4.60;66.95
11343;BME280;5726;42.160;24.746;2023-02-13T05:48:58;101659.41;;;4.51;66.91
11343;BME280;5726;42.160;24.746;2023-02-13T05:51:24;101664.72;;;4.44;68.68
11343;BME280;5726;42.160;24.746;2023-02-13T05:53:49;101655.75;;;5.30;99.81
11343;BME280;5726;42.160;24.746;2023-02-13T05:56:15;101663.97;;;5.48;73.36
11343;BME280;5726;42.160;24.746;2023-02-13T05:58:40;101662.34;;;5.54;70.29
11343;BME280;5726;42.160;24.746;2023-02-13T06:01:06;101659.69;;;5.73;67.89
11343;BME280;5726;42.160;24.746;2023-02-13T06:03:32;101663.38;;;6.17;71.86
11343;BME280;5726;42.160;24.746;2023-02-13T06:05:58;101667.78;;;6.99;73.69
11343;BME280;5726;42.160;24.746;2023-02-13T06:08:24;101659.88;;;7.47;72.70
11343;BME280;5726;42.160;24.746;2023-02-13T06:10:50;101662.75;;;7.52;62.09
11343;BME280;5726;42.160;24.746;2023-02-13T06:13:16;101660.34;;;7.68;56.22
11343;BME280;5726;42.160;24.746;2023-02-13T06:15:42;101661.94;;;7.76;57.19
11343;BME280;5726;42.160;24.746;2023-02-13T06:18:08;101667.41;;;7.81;55.69
11343;BME280;5726;42.160;24.746;2023-02-13T06:20:34;101670.28;;;8.04;52.25
11343;BME280;5726;42.160;24.746;2023-02-13T06:23:00;101669.75;;;7.71;52.48
11343;BME280;5726;42.160;24.746;2023-02-13T06:25:25;101667.38;;;7.32;53.53
11343;BME280;5726;42.160;24.746;2023-02-13T06:27:51;101680.06;;;7.06;55.59
11343;BME280;5726;42.160;24.746;2023-02-13T06:30:17;101685.34;;;7.13;55.17
11343;BME280;5726;42.160;24.746;2023-02-13T06:32:44;101669.19;;;7.38;54.50
11343;BME280;5726;42.160;24.746;2023-02-13T06:35:10;101664.69;;;7.87;53.16
11343;BME280;5726;42.160;24.746;2023-02-13T06:37:35;101668.91;;;8.43;51.61
11343;BME280;5726;42.160;24.746;2023-02-13T06:40:01;101673.81;;;8.64;50.07
11343;BME280;5726;42.160;24.746;2023-02-13T06:42:26;101675.56;;;8.88;49.66
11343;BME280;5726;42.160;24.746;2023-02-13T06:44:52;101678.75;;;8.96;48.97
11343;BME280;5726;42.160;24.746;2023-02-13T06:47:17;101664.31;;;9.26;48.46
11343;BME280;5726;42.160;24.746;2023-02-13T06:49:43;101669.41;;;9.16;48.09
11343;BME280;5726;42.160;24.746;2023-02-13T06:52:08;101667.88;;;8.91;48.73
11343;BME280;5726;42.160;24.746;2023-02-13T06:54:33;101672.94;;;8.99;48.89
11343;BME280;5726;42.160;24.746;2023-02-13T06:56:59;101665.50;;;9.01;49.16
11343;BME280;5726;42.160;24.746;2023-02-13T06:59:24;101672.06;;;9.05;48.21
11343;BME280;5726;42.160;24.746;2023-02-13T07:01:50;101668.31;;;8.77;48.79
11343;BME280;5726;42.160;24.746;2023-02-13T07:04:15;101671.56;;;8.01;51.46
11343;BME280;5726;42.160;24.746;2023-02-13T07:06:40;101668.06;;;8.01;52.09
11343;BME280;5726;42.160;24.746;2023-02-13T07:09:06;101659.47;;;7.74;52.81
11343;BME280;5726;42.160;24.746;2023-02-13T07:11:31;101653.50;;;6.87;57.58
11343;BME280;5726;42.160;24.746;2023-02-13T07:13:57;101651.06;;;6.79;58.23
11343;BME280;5726;42.160;24.746;2023-02-13T07:16:22;101653.66;;;7.29;56.46
11343;BME280;5726;42.160;24.746;2023-02-13T07:18:48;101650.41;;;7.20;56.58
11343;BME280;5726;42.160;24.746;2023-02-13T07:21:13;101652.50;;;7.18;57.40
11343;BME280;5726;42.160;24.746;2023-02-13T07:23:39;101648.25;;;7.42;60.91
11343;BME280;5726;42.160;24.746;2023-02-13T07:26:04;101655.59;;;7.46;57.26
11343;BME280;5726;42.160;24.746;2023-02-13T07:28:31;101665.13;;;7.29;57.63
11343;BME280;5726;42.160;24.746;2023-02-13T07:30:56;101659.47;;;7.19;58.29
11343;BME280;5726;42.160;24.746;2023-02-13T07:33:22;101665.56;;;7.26;57.68
11343;BME280;5726;42.160;24.746;2023-02-13T07:35:49;101662.22;;;7.37;57.71
11343;BME280;5726;42.160;24.746;2023-02-13T07:38:18;101669.84;;;8.07;77.51
11343;BME280;5726;42.160;24.746;2023-02-13T07:40:44;101676.91;;;8.25;58.50
11343;BME280;5726;42.160;24.746;2023-02-13T07:43:09;101666.16;;;8.07;56.49
11343;BME280;5726;42.160;24.746;2023-02-13T07:45:36;101665.66;;;8.17;54.43
11343;BME280;5726;42.160;24.746;2023-02-13T07:48:01;101656.16;;;7.79;55.95
11343;BME280;5726;42.160;24.746;2023-02-13T07:50:28;101657.41;;;7.76;56.57
11343;BME280;5726;42.160;24.746;2023-02-13T07:53:01;101662.03;;;7.63;57.41
11343;BME280;5726;42.160;24.746;2023-02-13T07:55:27;101658.00;;;7.54;57.44
11343;BME280;5726;42.160;24.746;2023-02-13T07:57:53;101658.53;;;7.62;57.29
11343;BME280;5726;42.160;24.746;2023-02-13T08:00:20;101657.81;;;7.98;55.95
11343;BME280;5726;42.160;24.746;2023-02-13T08:02:46;101661.09;;;8.00;55.67
11343;BME280;5726;42.160;24.746;2023-02-13T08:05:12;101651.78;;;8.08;55.30
11343;BME280;5726;42.160;24.746;2023-02-13T08:07:37;101652.50;;;7.73;56.11
11343;BME280;5726;42.160;24.746;2023-02-13T08:10:04;101650.13;;;7.35;58.46
11343;BME280;5726;42.160;24.746;2023-02-13T08:12:50;101646.97;;;7.44;59.14
11343;BME280;5726;42.160;24.746;2023-02-13T08:15:16;101650.25;;;7.46;58.85
11343;BME280;5726;42.160;24.746;2023-02-13T08:17:41;101656.19;;;7.48;58.76
11343;BME280;5726;42.160;24.746;2023-02-13T08:20:07;101641.59;;;7.75;57.83
11343;BME280;5726;42.160;24.746;2023-02-13T08:22:33;101647.69;;;7.82;57.65
11343;BME280;5726;42.160;24.746;2023-02-13T08:24:59;101649.78;;;7.98;56.33
11343;BME280;5726;42.160;24.746;2023-02-13T08:27:25;101653.19;;;7.87;57.02
11343;BME280;5726;42.160;24.746;2023-02-13T08:29:52;101644.00;;;8.01;56.90
11343;BME280;5726;42.160;24.746;2023-02-13T08:32:17;101636.44;;;7.98;56.31
11343;BME280;5726;42.160;24.746;2023-02-13T08:34:43;101637.63;;;8.26;56.34
11343;BME280;5726;42.160;24.746;2023-02-13T08:37:08;101644.16;;;8.65;54.71
11343;BME280;5726;42.160;24.746;2023-02-13T08:39:33;101645.22;;;8.94;53.52
11343;BME280;5726;42.160;24.746;2023-02-13T08:41:59;101643.06;;;9.43;51.76
11343;BME280;5726;42.160;24.746;2023-02-13T08:44:24;101642.41;;;9.58;50.43
11343;BME280;5726;42.160;24.746;2023-02-13T08:46:50;101639.72;;;9.47;50.81
11343;BME280;5726;42.160;24.746;2023-02-13T08:49:15;101621.50;;;9.26;51.21
11343;BME280;5726;42.160;24.746;2023-02-13T08:51:41;101618.16;;;9.02;52.71
11343;BME280;5726;42.160;24.746;2023-02-13T08:54:06;101614.16;;;9.22;51.89
11343;BME280;5726;42.160;24.746;2023-02-13T08:56:32;101625.47;;;9.35;51.48
11343;BME280;5726;42.160;24.746;2023-02-13T08:58:57;101621.31;;;9.39;52.01
11343;BME280;5726;42.160;24.746;2023-02-13T09:01:22;101625.41;;;9.53;50.99
11343;BME280;5726;42.160;24.746;2023-02-13T09:03:48;101620.53;;;9.61;51.20
11343;BME280;5726;42.160;24.746;2023-02-13T09:06:14;101625.44;;;9.87;50.49
11343;BME280;5726;42.160;24.746;2023-02-13T09:08:39;101626.25;;;10.22;49.05
11343;BME280;5726;42.160;24.746;2023-02-13T09:11:05;101622.06;;;10.14;49.09
11343;BME280;5726;42.160;24.746;2023-02-13T09:13:32;101614.94;;;9.86;49.77
11343;BME280;5726;42.160;24.746;2023-02-13T09:16:03;101618.09;;;9.83;50.21
11343;BME280;5726;42.160;24.746;2023-02-13T09:18:29;101608.53;;;10.21;49.40
11343;BME280;5726;42.160;24.746;2023-02-13T09:21:09;101611.84;;;10.62;48.44
11343;BME280;5726;42.160;24.746;2023-02-13T09:23:37;101605.59;;;10.73;47.48
11343;BME280;5726;42.160;24.746;2023-02-13T09:26:06;101602.69;;;10.35;48.43
11343;BME280;5726;42.160;24.746;2023-02-13T09:28:33;101602.13;;;10.33;49.57
11343;BME280;5726;42.160;24.746;2023-02-13T09:30:59;101591.81;;;10.53;48.69
11343;BME280;5726;42.160;24.746;2023-02-13T09:33:25;101589.00;;;10.87;48.28
11343;BME280;5726;42.160;24.746;2023-02-13T09:35:51;101583.09;;;11.01;47.45
11343;BME280;5726;42.160;24.746;2023-02-13T09:38:16;101580.97;;;11.03;46.59
11343;BME280;5726;42.160;24.746;2023-02-13T09:40:59;101574.97;;;11.13;46.83
11343;BME280;5726;42.160;24.746;2023-02-13T09:43:56;101565.66;;;10.88;47.04
11343;BME280;5726;42.160;24.746;2023-02-13T09:46:32;101575.25;;;10.84;47.58
11343;BME280;5726;42.160;24.746;2023-02-13T09:49:01;101567.03;;;10.90;47.06
11343;BME280;5726;42.160;24.746;2023-02-13T09:51:29;101565.06;;;10.58;46.62
11343;BME280;5726;42.160;24.746;2023-02-13T09:54:01;101557.03;;;10.58;47.07
11343;BME280;5726;42.160;24.746;2023-02-13T09:59:02;101545.69;;;11.11;46.14
11343;BME280;5726;42.160;24.746;2023-02-13T10:01:38;101545.78;;;11.16;45.75
11343;BME280;5726;42.160;24.746;2023-02-13T10:18:47;101512.97;;;10.98;45.37
11343;BME280;5726;42.160;24.746;2023-02-13T10:21:13;101513.03;;;10.87;45.54
11343;BME280;5726;42.160;24.746;2023-02-13T10:23:46;101498.81;;;11.19;45.09
11343;BME280;5726;42.160;24.746;2023-02-13T10:26:20;101502.81;;;11.33;44.90
11343;BME280;5726;42.160;24.746;2023-02-13T10:28:56;101491.97;;;11.28;44.41
11343;BME280;5726;42.160;24.746;2023-02-13T10:31:44;101486.13;;;11.14;44.90
11343;BME280;5726;42.160;24.746;2023-02-13T10:34:16;101475.56;;;11.24;44.91
11343;BME280;5726;42.160;24.746;2023-02-13T10:36:44;101478.06;;;10.98;45.43
11343;BME280;5726;42.160;24.746;2023-02-13T10:39:25;101476.22;;;11.31;44.73
11343;BME280;5726;42.160;24.746;2023-02-13T11:00:40;101436.44;;;11.66;42.36
11343;BME280;5726;42.160;24.746;2023-02-13T11:03:17;101427.88;;;11.90;41.97
11343;BME280;5726;42.160;24.746;2023-02-13T11:05:42;101428.28;;;11.77;41.78
11343;BME280;5726;42.160;24.746;2023-02-13T11:08:32;101425.84;;;11.76;42.13
11343;BME280;5726;42.160;24.746;2023-02-13T11:10:58;101414.63;;;11.62;42.62
11343;BME280;5726;42.160;24.746;2023-02-13T11:13:26;101402.13;;;11.51;42.06
11343;BME280;5726;42.160;24.746;2023-02-13T11:16:07;101407.13;;;11.27;42.26
11343;BME280;5726;42.160;24.746;2023-02-13T11:18:39;101403.22;;;11.34;41.96
11343;BME280;5726;42.160;24.746;2023-02-13T11:21:20;101392.50;;;11.55;41.90
11343;BME280;5726;42.160;24.746;2023-02-13T11:23:51;101389.56;;;11.78;40.83
11343;BME280;5726;42.160;24.746;2023-02-13T11:26:34;101387.38;;;11.75;40.39
11343;BME280;5726;42.160;24.746;2023-02-13T11:29:03;101375.69;;;11.65;40.55
11343;BME280;5726;42.160;24.746;2023-02-13T11:31:34;101363.44;;;11.74;40.82
11343;BME280;5726;42.160;24.746;2023-02-13T11:34:24;101366.06;;;11.90;40.46
11343;BME280;5726;42.160;24.746;2023-02-13T11:36:51;101360.25;;;11.77;40.30
11343;BME280;5726;42.160;24.746;2023-02-13T11:39:20;101353.22;;;11.97;39.50
11343;BME280;5726;42.160;24.746;2023-02-13T11:41:46;101354.81;;;11.72;39.30
11343;BME280;5726;42.160;24.746;2023-02-13T11:44:25;101346.97;;;12.13;38.71
11343;BME280;5726;42.160;24.746;2023-02-13T11:46:53;101342.63;;;12.12;38.73
11343;BME280;5726;42.160;24.746;2023-02-13T11:49:30;101350.59;;;12.28;38.78
11343;BME280;5726;42.160;24.746;2023-02-13T11:52:23;101337.28;;;12.43;37.82
11343;BME280;5726;42.160;24.746;2023-02-13T11:54:57;101326.56;;;12.48;37.87
11343;BME280;5726;42.160;24.746;2023-02-13T11:57:30;101320.41;;;12.21;38.89
11343;BME280;5726;42.160;24.746;2023-02-13T11:59:57;101318.97;;;12.40;38.28
11343;BME280;5726;42.160;24.746;2023-02-13T12:02:30;101321.81;;;12.60;37.86
11343;BME280;5726;42.160;24.746;2023-02-13T12:07:42;101315.13;;;12.31;38.47
11343;BME280;5726;42.160;24.746;2023-02-13T12:10:19;101305.94;;;12.27;37.14
11343;BME280;5726;42.160;24.746;2023-02-13T12:13:05;101302.81;;;12.40;36.10
11343;BME280;5726;42.160;24.746;2023-02-13T12:15:37;101294.66;;;12.30;36.29
11343;BME280;5726;42.160;24.746;2023-02-13T12:20:45;101284.75;;;12.72;35.53
11343;BME280;5726;42.160;24.746;2023-02-13T12:23:32;101283.16;;;12.71;35.12
11343;BME280;5726;42.160;24.746;2023-02-13T12:32:01;101288.84;;;12.43;35.59
11343;BME280;5726;42.160;24.746;2023-02-13T12:40:26;101282.56;;;12.64;36.31
11343;BME280;5726;42.160;24.746;2023-02-13T12:46:12;101266.34;;;12.95;35.66
11343;BME280;5726;42.160;24.746;2023-02-13T12:48:57;101264.59;;;13.25;35.62
11343;BME280;5726;42.160;24.746;2023-02-13T12:51:32;101265.44;;;13.31;33.94
11343;BME280;5726;42.160;24.746;2023-02-13T12:59:53;101260.72;;;13.01;35.17
11343;BME280;5726;42.160;24.746;2023-02-13T13:07:49;101251.97;;;13.31;33.38
11343;BME280;5726;42.160;24.746;2023-02-13T13:21:05;101245.78;;;13.35;32.63
11343;BME280;5726;42.160;24.746;2023-02-13T13:26:25;101233.69;;;12.82;32.76
11343;BME280;5726;42.160;24.746;2023-02-13T13:28:58;101230.75;;;12.83;32.69
11343;BME280;5726;42.160;24.746;2023-02-13T13:31:25;101222.41;;;12.85;33.47
11343;BME280;5726;42.160;24.746;2023-02-13T13:33:53;101224.19;;;13.25;31.53
11343;BME280;5726;42.160;24.746;2023-02-13T13:36:44;101228.38;;;12.91;32.90
11343;BME280;5726;42.160;24.746;2023-02-13T13:44:52;101218.28;;;13.18;31.98
11343;BME280;5726;42.160;24.746;2023-02-13T13:50:30;101218.28;;;13.18;31.73
11343;BME280;5726;42.160;24.746;2023-02-13T13:53:08;101213.47;;;13.40;31.73
11343;BME280;5726;42.160;24.746;2023-02-13T13:55:58;101205.34;;;13.20;32.34
11343;BME280;5726;42.160;24.746;2023-02-13T14:04:00;101198.63;;;13.23;32.36
11343;BME280;5726;42.160;24.746;2023-02-13T14:14:55;101195.44;;;13.40;31.84
11343;BME280;5726;42.160;24.746;2023-02-13T14:28:37;101185.84;;;12.98;32.77
11343;BME280;5726;42.160;24.746;2023-02-13T14:36:29;101191.56;;;13.12;32.34
11343;BME280;5726;42.160;24.746;2023-02-13T14:39:44;101184.72;;;12.85;33.23
11343;BME280;5726;42.160;24.746;2023-02-13T14:46:49;101176.75;;;13.09;34.36
11343;BME280;5726;42.160;24.746;2023-02-13T14:49:25;101175.69;;;13.15;33.43
11343;BME280;5726;42.160;24.746;2023-02-13T14:51:57;101168.63;;;12.94;32.86
11343;BME280;5726;42.160;24.746;2023-02-13T14:59:39;101160.41;;;12.75;33.53
11343;BME280;5726;42.160;24.746;2023-02-13T15:04:48;101167.53;;;12.95;34.17
11343;BME280;5726;42.160;24.746;2023-02-13T15:07:23;101171.31;;;12.99;33.86
11343;BME280;5726;42.160;24.746;2023-02-13T15:09:53;101166.25;;;12.57;33.79
11343;BME280;5726;42.160;24.746;2023-02-13T15:12:34;101159.19;;;12.87;33.02
11343;BME280;5726;42.160;24.746;2023-02-13T15:15:02;101156.88;;;12.64;34.05
11343;BME280;5726;42.160;24.746;2023-02-13T15:17:30;101162.50;;;12.58;33.64
11343;BME280;5726;42.160;24.746;2023-02-13T15:22:38;101162.41;;;12.38;34.62
11343;BME280;5726;42.160;24.746;2023-02-13T15:25:07;101159.59;;;12.23;34.75
11343;BME280;5726;42.160;24.746;2023-02-13T15:27:39;101163.19;;;12.39;35.39
11343;BME280;5726;42.160;24.746;2023-02-13T15:30:18;101165.34;;;12.37;34.19
11343;BME280;5726;42.160;24.746;2023-02-13T15:32:53;101157.44;;;12.20;35.53
11343;BME280;5726;42.160;24.746;2023-02-13T15:35:26;101160.41;;;12.24;34.46
11343;BME280;5726;42.160;24.746;2023-02-13T15:37:52;101157.00;;;11.97;35.46
11343;BME280;5726;42.160;24.746;2023-02-13T15:40:25;101153.53;;;12.01;35.10
11343;BME280;5726;42.160;24.746;2023-02-13T15:42:51;101155.84;;;11.88;35.66
11343;BME280;5726;42.160;24.746;2023-02-13T15:45:18;101153.94;;;11.84;35.72
11343;BME280;5726;42.160;24.746;2023-02-13T15:47:45;101144.25;;;11.83;35.81
11343;BME280;5726;42.160;24.746;2023-02-13T15:50:30;101148.00;;;11.82;36.03
11343;BME280;5726;42.160;24.746;2023-02-13T15:52:58;101157.50;;;11.63;36.20
11343;BME280;5726;42.160;24.746;2023-02-13T15:55:28;101153.81;;;11.69;36.19
11343;BME280;5726;42.160;24.746;2023-02-13T15:57:56;101156.38;;;11.59;36.02
11343;BME280;5726;42.160;24.746;2023-02-13T16:00:25;101155.50;;;11.48;36.29
11343;BME280;5726;42.160;24.746;2023-02-13T16:02:52;101159.34;;;11.31;36.69